sensor_id;sensor_type;location;lat;lon;timestamp;temperature;humidity
69595;DHT22;56800;52.142;5.364;2023-01-06T00:00:43;11.30;84.90
69595;DHT22;56800;52.142;5.364;2023-01-06T00:03:09;11.30;84.80
69595;DHT22;56800;52.142;5.364;2023-01-06T00:05:36;11.30;84.70
69595;DHT22;56800;52.142;5.364;2023-01-06T00:08:03;11.30;84.60
69595;DHT22;56800;52.142;5.364;2023-01-06T00:10:29;11.30;84.50
69595;DHT22;56800;52.142;5.364;2023-01-06T00:12:56;11.30;84.50
69595;DHT22;56800;52.142;5.364;2023-01-06T00:15:23;11.30;84.30
69595;DHT22;56800;52.142;5.364;2023-01-06T00:17:49;11.30;84.30
69595;DHT22;56800;52.142;5.364;2023-01-06T00:20:16;11.30;84.30
69595;DHT22;56800;52.142;5.364;2023-01-06T00:22:43;11.30;84.10
69595;DHT22;56800;52.142;5.364;2023-01-06T00:25:10;11.30;84.10
69595;DHT22;56800;52.142;5.364;2023-01-06T00:27:38;11.30;83.80
69595;DHT22;56800;52.142;5.364;2023-01-06T00:30:06;11.30;83.80
69595;DHT22;56800;52.142;5.364;2023-01-06T00:32:33;11.20;83.70
69595;DHT22;56800;52.142;5.364;2023-01-06T00:35:01;11.30;83.70
69595;DHT22;56800;52.142;5.364;2023-01-06T00:37:27;11.20;83.70
69595;DHT22;56800;52.142;5.364;2023-01-06T00:39:54;11.20;83.80
69595;DHT22;56800;52.142;5.364;2023-01-06T00:42:21;11.20;83.80
69595;DHT22;56800;52.142;5.364;2023-01-06T00:44:48;11.20;83.80
69595;DHT22;56800;52.142;5.364;2023-01-06T00:47:15;11.20;83.80
69595;DHT22;56800;52.142;5.364;2023-01-06T00:49:42;11.30;83.90
69595;DHT22;56800;52.142;5.364;2023-01-06T00:52:10;11.20;83.80
69595;DHT22;56800;52.142;5.364;2023-01-06T00:54:36;11.20;83.80
69595;DHT22;56800;52.142;5.364;2023-01-06T00:57:05;11.20;83.80
69595;DHT22;56800;52.142;5.364;2023-01-06T00:59:32;11.20;83.80
69595;DHT22;56800;52.142;5.364;2023-01-06T01:01:59;11.20;83.80
69595;DHT22;56800;52.142;5.364;2023-01-06T01:04:27;11.20;83.90
69595;DHT22;56800;52.142;5.364;2023-01-06T01:06:54;11.20;84.00
69595;DHT22;56800;52.142;5.364;2023-01-06T01:09:27;11.20;84.00
69595;DHT22;56800;52.142;5.364;2023-01-06T01:11:54;11.20;84.00
69595;DHT22;56800;52.142;5.364;2023-01-06T01:14:45;11.20;84.00
69595;DHT22;56800;52.142;5.364;2023-01-06T01:17:24;11.20;84.00
69595;DHT22;56800;52.142;5.364;2023-01-06T01:19:52;11.20;83.90
69595;DHT22;56800;52.142;5.364;2023-01-06T01:22:22;11.20;83.90
69595;DHT22;56800;52.142;5.364;2023-01-06T01:24:49;11.20;83.80
69595;DHT22;56800;52.142;5.364;2023-01-06T01:27:16;11.20;83.70
69595;DHT22;56800;52.142;5.364;2023-01-06T01:29:42;11.20;84.50
69595;DHT22;56800;52.142;5.364;2023-01-06T01:32:09;11.20;83.70
69595;DHT22;56800;52.142;5.364;2023-01-06T01:34:36;11.20;83.70
69595;DHT22;56800;52.142;5.364;2023-01-06T01:37:03;11.20;83.60
69595;DHT22;56800;52.142;5.364;2023-01-06T01:39:30;11.20;83.60
69595;DHT22;56800;52.142;5.364;2023-01-06T01:41:58;11.20;83.50
69595;DHT22;56800;52.142;5.364;2023-01-06T01:45:05;11.20;83.60
69595;DHT22;56800;52.142;5.364;2023-01-06T01:47:47;11.20;83.50
69595;DHT22;56800;52.142;5.364;2023-01-06T01:52:52;11.20;83.30
69595;DHT22;56800;52.142;5.364;2023-01-06T01:55:20;11.20;83.20
69595;DHT22;56800;52.142;5.364;2023-01-06T01:58:15;11.20;83.20
69595;DHT22;56800;52.142;5.364;2023-01-06T02:00:41;11.20;83.10
69595;DHT22;56800;52.142;5.364;2023-01-06T02:03:09;11.20;83.10
69595;DHT22;56800;52.142;5.364;2023-01-06T02:05:40;11.20;83.00
69595;DHT22;56800;52.142;5.364;2023-01-06T02:08:45;11.20;83.00
69595;DHT22;56800;52.142;5.364;2023-01-06T02:11:13;11.20;82.90
69595;DHT22;56800;52.142;5.364;2023-01-06T02:13:42;11.20;82.90
69595;DHT22;56800;52.142;5.364;2023-01-06T02:16:24;11.20;82.80
69595;DHT22;56800;52.142;5.364;2023-01-06T02:19:07;11.20;82.90
69595;DHT22;56800;52.142;5.364;2023-01-06T02:30:06;11.20;82.70
69595;DHT22;56800;52.142;5.364;2023-01-06T02:41:03;11.20;82.70
69595;DHT22;56800;52.142;5.364;2023-01-06T02:43:39;11.20;82.70
69595;DHT22;56800;52.142;5.364;2023-01-06T02:46:22;11.20;83.30
69595;DHT22;56800;52.142;5.364;2023-01-06T02:52:22;11.20;82.50
69595;DHT22;56800;52.142;5.364;2023-01-06T02:55:05;11.20;82.40
69595;DHT22;56800;52.142;5.364;2023-01-06T02:58:34;11.20;82.40
69595;DHT22;56800;52.142;5.364;2023-01-06T03:00:51;11.10;82.30
69595;DHT22;56800;52.142;5.364;2023-01-06T03:03:21;11.20;82.40
69595;DHT22;56800;52.142;5.364;2023-01-06T03:05:51;11.20;82.30
69595;DHT22;56800;52.142;5.364;2023-01-06T03:08:25;11.20;82.30
69595;DHT22;56800;52.142;5.364;2023-01-06T03:10:53;11.10;82.10
69595;DHT22;56800;52.142;5.364;2023-01-06T03:13:43;11.20;82.10
69595;DHT22;56800;52.142;5.364;2023-01-06T03:16:12;11.10;82.00
69595;DHT22;56800;52.142;5.364;2023-01-06T03:18:41;11.10;82.00
69595;DHT22;56800;52.142;5.364;2023-01-06T03:21:12;11.10;82.00
69595;DHT22;56800;52.142;5.364;2023-01-06T03:23:40;11.10;81.90
69595;DHT22;56800;52.142;5.364;2023-01-06T03:26:08;11.10;81.90
69595;DHT22;56800;52.142;5.364;2023-01-06T03:28:35;11.10;81.60
69595;DHT22;56800;52.142;5.364;2023-01-06T03:31:06;11.10;81.70
69595;DHT22;56800;52.142;5.364;2023-01-06T03:39:38;11.10;81.50
69595;DHT22;56800;52.142;5.364;2023-01-06T03:42:23;11.10;81.40
69595;DHT22;56800;52.142;5.364;2023-01-06T03:45:17;11.10;81.40
69595;DHT22;56800;52.142;5.364;2023-01-06T03:48:17;11.10;81.30
69595;DHT22;56800;52.142;5.364;2023-01-06T03:50:51;11.10;81.10
69595;DHT22;56800;52.142;5.364;2023-01-06T03:53:44;11.10;81.00
69595;DHT22;56800;52.142;5.364;2023-01-06T03:56:35;11.10;81.10
69595;DHT22;56800;52.142;5.364;2023-01-06T03:59:08;11.10;80.90
69595;DHT22;56800;52.142;5.364;2023-01-06T04:01:39;11.20;81.00
69595;DHT22;56800;52.142;5.364;2023-01-06T04:04:09;11.20;81.00
69595;DHT22;56800;52.142;5.364;2023-01-06T04:06:36;11.20;80.90
69595;DHT22;56800;52.142;5.364;2023-01-06T04:09:03;11.10;80.70
69595;DHT22;56800;52.142;5.364;2023-01-06T04:11:29;11.20;81.60
69595;DHT22;56800;52.142;5.364;2023-01-06T04:14:22;11.20;80.60
69595;DHT22;56800;52.142;5.364;2023-01-06T04:16:49;11.20;80.60
69595;DHT22;56800;52.142;5.364;2023-01-06T04:19:15;11.20;80.60
69595;DHT22;56800;52.142;5.364;2023-01-06T04:21:42;11.20;80.50
69595;DHT22;56800;52.142;5.364;2023-01-06T04:24:09;11.20;80.50
69595;DHT22;56800;52.142;5.364;2023-01-06T04:26:35;11.20;80.40
69595;DHT22;56800;52.142;5.364;2023-01-06T04:29:02;11.20;80.40
69595;DHT22;56800;52.142;5.364;2023-01-06T04:31:29;11.20;80.40
69595;DHT22;56800;52.142;5.364;2023-01-06T04:33:56;11.20;80.40
69595;DHT22;56800;52.142;5.364;2023-01-06T04:36:22;11.20;80.20
69595;DHT22;56800;52.142;5.364;2023-01-06T04:38:49;11.20;80.30
69595;DHT22;56800;52.142;5.364;2023-01-06T04:41:16;11.20;80.10
69595;DHT22;56800;52.142;5.364;2023-01-06T04:43:42;11.20;80.30
69595;DHT22;56800;52.142;5.364;2023-01-06T04:46:09;11.20;80.30
69595;DHT22;56800;52.142;5.364;2023-01-06T04:48:36;11.20;80.30
69595;DHT22;56800;52.142;5.364;2023-01-06T04:51:05;11.20;80.40
69595;DHT22;56800;52.142;5.364;2023-01-06T04:53:33;11.10;80.50
69595;DHT22;56800;52.142;5.364;2023-01-06T04:56:05;11.20;80.60
69595;DHT22;56800;52.142;5.364;2023-01-06T04:58:32;11.10;80.70
69595;DHT22;56800;52.142;5.364;2023-01-06T05:01:04;11.10;80.70
69595;DHT22;56800;52.142;5.364;2023-01-06T05:03:31;11.10;80.70
69595;DHT22;56800;52.142;5.364;2023-01-06T05:06:02;11.10;80.80
69595;DHT22;56800;52.142;5.364;2023-01-06T05:08:30;11.10;80.70
69595;DHT22;56800;52.142;5.364;2023-01-06T05:11:02;11.10;80.70
69595;DHT22;56800;52.142;5.364;2023-01-06T05:13:30;11.10;80.70
69595;DHT22;56800;52.142;5.364;2023-01-06T05:15:57;11.10;80.70
69595;DHT22;56800;52.142;5.364;2023-01-06T05:18:23;11.10;80.70
69595;DHT22;56800;52.142;5.364;2023-01-06T05:20:51;11.10;80.60
69595;DHT22;56800;52.142;5.364;2023-01-06T05:23:19;11.10;80.50
69595;DHT22;56800;52.142;5.364;2023-01-06T05:25:49;11.10;80.60
69595;DHT22;56800;52.142;5.364;2023-01-06T05:28:17;11.10;80.60
69595;DHT22;56800;52.142;5.364;2023-01-06T05:30:44;11.20;80.60
69595;DHT22;56800;52.142;5.364;2023-01-06T05:33:10;11.10;80.60
69595;DHT22;56800;52.142;5.364;2023-01-06T05:35:37;11.20;80.60
69595;DHT22;56800;52.142;5.364;2023-01-06T05:38:04;11.20;80.60
69595;DHT22;56800;52.142;5.364;2023-01-06T05:40:30;11.20;80.70
69595;DHT22;56800;52.142;5.364;2023-01-06T05:42:57;11.20;80.70
69595;DHT22;56800;52.142;5.364;2023-01-06T05:45:24;11.20;80.90
69595;DHT22;56800;52.142;5.364;2023-01-06T05:47:51;11.20;81.00
69595;DHT22;56800;52.142;5.364;2023-01-06T05:50:18;11.10;81.00
69595;DHT22;56800;52.142;5.364;2023-01-06T05:52:44;11.10;81.10
69595;DHT22;56800;52.142;5.364;2023-01-06T05:55:11;11.10;81.20
69595;DHT22;56800;52.142;5.364;2023-01-06T05:57:38;11.10;81.20
69595;DHT22;56800;52.142;5.364;2023-01-06T06:00:05;11.10;81.20
69595;DHT22;56800;52.142;5.364;2023-01-06T06:02:33;11.10;81.40
69595;DHT22;56800;52.142;5.364;2023-01-06T06:05:00;11.10;81.50
69595;DHT22;56800;52.142;5.364;2023-01-06T06:07:26;11.10;81.60
69595;DHT22;56800;52.142;5.364;2023-01-06T06:09:53;11.10;81.90
69595;DHT22;56800;52.142;5.364;2023-01-06T06:12:20;11.00;82.00
69595;DHT22;56800;52.142;5.364;2023-01-06T06:14:46;11.00;82.00
69595;DHT22;56800;52.142;5.364;2023-01-06T06:17:13;11.00;82.30
69595;DHT22;56800;52.142;5.364;2023-01-06T06:19:39;11.00;82.30
69595;DHT22;56800;52.142;5.364;2023-01-06T06:22:06;11.00;82.40
69595;DHT22;56800;52.142;5.364;2023-01-06T06:24:36;10.90;82.60
69595;DHT22;56800;52.142;5.364;2023-01-06T06:27:03;10.90;82.60
69595;DHT22;56800;52.142;5.364;2023-01-06T06:29:30;10.90;82.60
69595;DHT22;56800;52.142;5.364;2023-01-06T06:31:56;10.90;82.70
69595;DHT22;56800;52.142;5.364;2023-01-06T06:34:23;10.90;82.70
69595;DHT22;56800;52.142;5.364;2023-01-06T06:36:50;10.90;82.80
69595;DHT22;56800;52.142;5.364;2023-01-06T06:39:17;11.00;82.90
69595;DHT22;56800;52.142;5.364;2023-01-06T06:41:43;11.00;82.90
69595;DHT22;56800;52.142;5.364;2023-01-06T06:44:10;11.00;82.80
69595;DHT22;56800;52.142;5.364;2023-01-06T06:46:37;11.00;82.80
69595;DHT22;56800;52.142;5.364;2023-01-06T06:49:03;11.00;82.90
69595;DHT22;56800;52.142;5.364;2023-01-06T06:51:30;11.00;83.00
69595;DHT22;56800;52.142;5.364;2023-01-06T06:53:57;11.00;83.20
69595;DHT22;56800;52.142;5.364;2023-01-06T06:56:24;11.00;83.20
69595;DHT22;56800;52.142;5.364;2023-01-06T06:58:50;10.90;83.50
69595;DHT22;56800;52.142;5.364;2023-01-06T07:01:19;10.90;83.50
69595;DHT22;56800;52.142;5.364;2023-01-06T07:03:47;10.90;83.80
69595;DHT22;56800;52.142;5.364;2023-01-06T07:06:18;10.90;83.80
69595;DHT22;56800;52.142;5.364;2023-01-06T07:08:45;10.90;84.00
69595;DHT22;56800;52.142;5.364;2023-01-06T07:11:12;10.90;84.10
69595;DHT22;56800;52.142;5.364;2023-01-06T07:13:39;10.90;84.30
69595;DHT22;56800;52.142;5.364;2023-01-06T07:16:06;10.90;84.40
69595;DHT22;56800;52.142;5.364;2023-01-06T07:18:33;10.90;84.50
69595;DHT22;56800;52.142;5.364;2023-01-06T07:21:00;10.90;84.90
69595;DHT22;56800;52.142;5.364;2023-01-06T07:23:26;10.90;84.90
69595;DHT22;56800;52.142;5.364;2023-01-06T07:25:54;10.90;85.00
69595;DHT22;56800;52.142;5.364;2023-01-06T07:28:23;10.90;84.90
69595;DHT22;56800;52.142;5.364;2023-01-06T07:30:49;10.90;85.00
69595;DHT22;56800;52.142;5.364;2023-01-06T07:33:17;10.90;85.10
69595;DHT22;56800;52.142;5.364;2023-01-06T07:35:44;10.90;85.60
69595;DHT22;56800;52.142;5.364;2023-01-06T07:38:11;10.80;85.10
69595;DHT22;56800;52.142;5.364;2023-01-06T07:40:38;10.90;85.10
69595;DHT22;56800;52.142;5.364;2023-01-06T07:43:05;10.90;85.20
69595;DHT22;56800;52.142;5.364;2023-01-06T07:45:33;10.90;85.20
69595;DHT22;56800;52.142;5.364;2023-01-06T07:48:00;10.90;85.20
69595;DHT22;56800;52.142;5.364;2023-01-06T07:50:27;10.90;85.30
69595;DHT22;56800;52.142;5.364;2023-01-06T07:52:56;10.90;85.20
69595;DHT22;56800;52.142;5.364;2023-01-06T07:55:23;10.80;85.30
69595;DHT22;56800;52.142;5.364;2023-01-06T07:57:51;10.90;85.20
69595;DHT22;56800;52.142;5.364;2023-01-06T08:00:18;10.90;85.20
69595;DHT22;56800;52.142;5.364;2023-01-06T08:02:44;10.80;85.20
69595;DHT22;56800;52.142;5.364;2023-01-06T08:05:11;10.80;85.20
69595;DHT22;56800;52.142;5.364;2023-01-06T08:07:38;10.80;85.30
69595;DHT22;56800;52.142;5.364;2023-01-06T08:10:05;10.80;85.10
69595;DHT22;56800;52.142;5.364;2023-01-06T08:12:32;10.80;85.20
69595;DHT22;56800;52.142;5.364;2023-01-06T08:14:59;10.80;85.20
69595;DHT22;56800;52.142;5.364;2023-01-06T08:17:25;10.80;85.20
69595;DHT22;56800;52.142;5.364;2023-01-06T08:19:52;10.80;85.20
69595;DHT22;56800;52.142;5.364;2023-01-06T08:22:19;10.80;85.20
69595;DHT22;56800;52.142;5.364;2023-01-06T08:24:45;10.80;85.20
69595;DHT22;56800;52.142;5.364;2023-01-06T08:27:12;10.80;85.10
69595;DHT22;56800;52.142;5.364;2023-01-06T08:29:40;10.90;85.00
69595;DHT22;56800;52.142;5.364;2023-01-06T08:32:24;10.90;85.00
69595;DHT22;56800;52.142;5.364;2023-01-06T08:34:51;10.80;84.90
69595;DHT22;56800;52.142;5.364;2023-01-06T08:37:17;10.80;84.70
69595;DHT22;56800;52.142;5.364;2023-01-06T08:39:47;10.80;84.70
69595;DHT22;56800;52.142;5.364;2023-01-06T08:42:14;10.80;84.50
69595;DHT22;56800;52.142;5.364;2023-01-06T08:44:40;10.80;84.50
69595;DHT22;56800;52.142;5.364;2023-01-06T08:47:07;10.80;84.40
69595;DHT22;56800;52.142;5.364;2023-01-06T08:49:33;10.70;84.40
69595;DHT22;56800;52.142;5.364;2023-01-06T08:52:00;10.70;84.30
69595;DHT22;56800;52.142;5.364;2023-01-06T08:54:28;10.70;85.10
69595;DHT22;56800;52.142;5.364;2023-01-06T08:56:55;10.70;84.20
69595;DHT22;56800;52.142;5.364;2023-01-06T08:59:22;10.70;84.20
69595;DHT22;56800;52.142;5.364;2023-01-06T09:01:49;10.60;84.20
69595;DHT22;56800;52.142;5.364;2023-01-06T09:04:16;10.70;84.40
69595;DHT22;56800;52.142;5.364;2023-01-06T09:06:42;10.70;84.20
69595;DHT22;56800;52.142;5.364;2023-01-06T09:09:09;10.70;84.10
69595;DHT22;56800;52.142;5.364;2023-01-06T09:11:40;10.70;84.00
69595;DHT22;56800;52.142;5.364;2023-01-06T09:14:09;10.70;83.90
69595;DHT22;56800;52.142;5.364;2023-01-06T09:16:36;10.60;83.70
69595;DHT22;56800;52.142;5.364;2023-01-06T09:19:02;10.70;83.90
69595;DHT22;56800;52.142;5.364;2023-01-06T09:21:29;10.70;83.90
69595;DHT22;56800;52.142;5.364;2023-01-06T09:23:56;10.70;84.00
69595;DHT22;56800;52.142;5.364;2023-01-06T09:26:23;10.70;83.60
69595;DHT22;56800;52.142;5.364;2023-01-06T09:28:49;10.70;83.40
69595;DHT22;56800;52.142;5.364;2023-01-06T09:31:16;10.70;83.40
69595;DHT22;56800;52.142;5.364;2023-01-06T09:33:44;10.70;83.30
69595;DHT22;56800;52.142;5.364;2023-01-06T09:36:10;10.60;83.30
69595;DHT22;56800;52.142;5.364;2023-01-06T09:38:37;10.60;83.30
69595;DHT22;56800;52.142;5.364;2023-01-06T09:41:32;10.70;83.30
69595;DHT22;56800;52.142;5.364;2023-01-06T09:46:39;10.80;83.50
69595;DHT22;56800;52.142;5.364;2023-01-06T09:49:28;11.00;85.40
69595;DHT22;56800;52.142;5.364;2023-01-06T09:52:01;11.40;84.80
69595;DHT22;56800;52.142;5.364;2023-01-06T09:55:02;11.80;83.90
69595;DHT22;56800;52.142;5.364;2023-01-06T09:57:37;12.30;83.20
69595;DHT22;56800;52.142;5.364;2023-01-06T10:00:21;12.90;82.60
69595;DHT22;56800;52.142;5.364;2023-01-06T10:02:49;13.50;80.60
69595;DHT22;56800;52.142;5.364;2023-01-06T10:05:47;13.80;78.20
69595;DHT22;56800;52.142;5.364;2023-01-06T10:11:18;14.40;77.20
69595;DHT22;56800;52.142;5.364;2023-01-06T10:14:00;14.60;76.10
69595;DHT22;56800;52.142;5.364;2023-01-06T10:20:00;14.10;73.10
69595;DHT22;56800;52.142;5.364;2023-01-06T10:22:49;13.70;73.40
69595;DHT22;56800;52.142;5.364;2023-01-06T10:25:43;13.30;73.90
69595;DHT22;56800;52.142;5.364;2023-01-06T10:28:18;13.10;74.80
69595;DHT22;56800;52.142;5.364;2023-01-06T10:30:52;13.00;75.00
69595;DHT22;56800;52.142;5.364;2023-01-06T10:33:25;12.90;75.30
69595;DHT22;56800;52.142;5.364;2023-01-06T10:35:54;13.00;75.40
69595;DHT22;56800;52.142;5.364;2023-01-06T10:38:26;13.00;75.40
69595;DHT22;56800;52.142;5.364;2023-01-06T10:43:46;13.20;75.20
69595;DHT22;56800;52.142;5.364;2023-01-06T10:46:14;13.30;74.60
69595;DHT22;56800;52.142;5.364;2023-01-06T10:48:41;13.50;73.50
69595;DHT22;56800;52.142;5.364;2023-01-06T10:51:29;13.50;73.10
69595;DHT22;56800;52.142;5.364;2023-01-06T10:54:00;13.40;72.80
69595;DHT22;56800;52.142;5.364;2023-01-06T10:56:28;13.20;72.50
69595;DHT22;56800;52.142;5.364;2023-01-06T10:59:05;13.10;72.70
69595;DHT22;56800;52.142;5.364;2023-01-06T11:01:32;13.00;72.50
69595;DHT22;56800;52.142;5.364;2023-01-06T11:04:11;12.80;72.70
69595;DHT22;56800;52.142;5.364;2023-01-06T11:06:42;12.70;72.50
69595;DHT22;56800;52.142;5.364;2023-01-06T11:09:27;12.50;73.00
69595;DHT22;56800;52.142;5.364;2023-01-06T11:11:56;12.50;72.90
69595;DHT22;56800;52.142;5.364;2023-01-06T11:14:28;12.40;73.30
69595;DHT22;56800;52.142;5.364;2023-01-06T11:16:59;12.30;72.90
69595;DHT22;56800;52.142;5.364;2023-01-06T11:19:42;12.30;72.80
69595;DHT22;56800;52.142;5.364;2023-01-06T11:22:34;12.20;73.30
69595;DHT22;56800;52.142;5.364;2023-01-06T11:25:05;12.20;73.50
69595;DHT22;56800;52.142;5.364;2023-01-06T11:27:56;12.20;73.30
69595;DHT22;56800;52.142;5.364;2023-01-06T11:30:39;12.20;73.60
69595;DHT22;56800;52.142;5.364;2023-01-06T11:33:17;12.30;73.30
69595;DHT22;56800;52.142;5.364;2023-01-06T11:35:45;12.30;73.10
69595;DHT22;56800;52.142;5.364;2023-01-06T11:38:13;12.30;73.40
69595;DHT22;56800;52.142;5.364;2023-01-06T11:40:42;12.40;73.70
69595;DHT22;56800;52.142;5.364;2023-01-06T11:43:14;12.50;73.40
69595;DHT22;56800;52.142;5.364;2023-01-06T11:45:48;12.60;73.00
69595;DHT22;56800;52.142;5.364;2023-01-06T11:48:18;12.60;73.10
69595;DHT22;56800;52.142;5.364;2023-01-06T11:51:11;12.60;72.60
69595;DHT22;56800;52.142;5.364;2023-01-06T11:53:39;12.50;71.60
69595;DHT22;56800;52.142;5.364;2023-01-06T11:56:19;12.40;71.80
69595;DHT22;56800;52.142;5.364;2023-01-06T11:59:07;12.20;72.20
69595;DHT22;56800;52.142;5.364;2023-01-06T12:01:54;12.10;72.40
69595;DHT22;56800;52.142;5.364;2023-01-06T12:04:37;12.10;72.80
69595;DHT22;56800;52.142;5.364;2023-01-06T12:07:14;12.10;73.00
69595;DHT22;56800;52.142;5.364;2023-01-06T12:09:45;12.00;73.30
69595;DHT22;56800;52.142;5.364;2023-01-06T12:12:19;12.10;73.50
69595;DHT22;56800;52.142;5.364;2023-01-06T12:14:47;12.00;73.50
69595;DHT22;56800;52.142;5.364;2023-01-06T12:22:51;12.00;73.50
69595;DHT22;56800;52.142;5.364;2023-01-06T12:28:21;12.00;73.80
69595;DHT22;56800;52.142;5.364;2023-01-06T12:30:52;12.10;73.70
69595;DHT22;56800;52.142;5.364;2023-01-06T12:33:38;12.20;74.00
69595;DHT22;56800;52.142;5.364;2023-01-06T12:36:21;12.40;74.00
69595;DHT22;56800;52.142;5.364;2023-01-06T12:38:55;12.50;73.90
69595;DHT22;56800;52.142;5.364;2023-01-06T12:41:39;12.60;73.30
69595;DHT22;56800;52.142;5.364;2023-01-06T12:49:38;12.60;73.20
69595;DHT22;56800;52.142;5.364;2023-01-06T12:52:19;12.60;73.00
69595;DHT22;56800;52.142;5.364;2023-01-06T12:54:53;12.50;72.80
69595;DHT22;56800;52.142;5.364;2023-01-06T13:00:40;12.50;72.80
69595;DHT22;56800;52.142;5.364;2023-01-06T13:03:39;12.50;72.40
69595;DHT22;56800;52.142;5.364;2023-01-06T13:06:32;12.40;71.90
69595;DHT22;56800;52.142;5.364;2023-01-06T13:17:06;12.50;71.40
69595;DHT22;56800;52.142;5.364;2023-01-06T13:19:51;12.50;70.80
69595;DHT22;56800;52.142;5.364;2023-01-06T13:39:30;12.30;70.40
69595;DHT22;56800;52.142;5.364;2023-01-06T13:42:00;12.30;70.60
69595;DHT22;56800;52.142;5.364;2023-01-06T13:44:30;12.30;70.60
69595;DHT22;56800;52.142;5.364;2023-01-06T13:47:04;12.20;70.00
69595;DHT22;56800;52.142;5.364;2023-01-06T13:49:36;12.20;70.10
69595;DHT22;56800;52.142;5.364;2023-01-06T13:52:03;12.10;69.80
69595;DHT22;56800;52.142;5.364;2023-01-06T13:54:57;12.10;70.00
69595;DHT22;56800;52.142;5.364;2023-01-06T13:57:36;12.10;70.10
69595;DHT22;56800;52.142;5.364;2023-01-06T14:07:53;12.00;69.80
69595;DHT22;56800;52.142;5.364;2023-01-06T14:10:37;11.90;69.80
69595;DHT22;56800;52.142;5.364;2023-01-06T14:16:04;11.90;69.80
69595;DHT22;56800;52.142;5.364;2023-01-06T14:18:49;11.80;69.90
69595;DHT22;56800;52.142;5.364;2023-01-06T14:21:25;11.80;70.00
69595;DHT22;56800;52.142;5.364;2023-01-06T14:30:30;11.70;70.20
69595;DHT22;56800;52.142;5.364;2023-01-06T14:33:33;11.60;69.80
69595;DHT22;56800;52.142;5.364;2023-01-06T14:36:25;11.60;70.20
69595;DHT22;56800;52.142;5.364;2023-01-06T14:39:20;11.60;70.20
69595;DHT22;56800;52.142;5.364;2023-01-06T14:41:59;11.50;70.10
69595;DHT22;56800;52.142;5.364;2023-01-06T14:44:49;11.40;70.10
69595;DHT22;56800;52.142;5.364;2023-01-06T14:47:54;11.40;70.10
69595;DHT22;56800;52.142;5.364;2023-01-06T14:50:53;11.40;70.30
69595;DHT22;56800;52.142;5.364;2023-01-06T14:54:00;11.30;70.30
69595;DHT22;56800;52.142;5.364;2023-01-06T14:56:59;11.30;70.40
69595;DHT22;56800;52.142;5.364;2023-01-06T15:00:45;11.30;70.40
69595;DHT22;56800;52.142;5.364;2023-01-06T15:03:42;11.30;70.70
69595;DHT22;56800;52.142;5.364;2023-01-06T15:07:24;11.20;70.80
69595;DHT22;56800;52.142;5.364;2023-01-06T15:10:18;11.20;70.80
69595;DHT22;56800;52.142;5.364;2023-01-06T15:16:02;11.10;70.90
69595;DHT22;56800;52.142;5.364;2023-01-06T15:18:43;11.10;71.00
69595;DHT22;56800;52.142;5.364;2023-01-06T15:21:48;11.00;71.20
69595;DHT22;56800;52.142;5.364;2023-01-06T15:25:28;11.00;71.10
69595;DHT22;56800;52.142;5.364;2023-01-06T15:28:41;11.00;71.30
69595;DHT22;56800;52.142;5.364;2023-01-06T15:31:51;10.90;71.40
69595;DHT22;56800;52.142;5.364;2023-01-06T15:34:58;10.90;71.50
69595;DHT22;56800;52.142;5.364;2023-01-06T15:37:36;10.90;71.60
69595;DHT22;56800;52.142;5.364;2023-01-06T15:40:19;10.80;71.60
69595;DHT22;56800;52.142;5.364;2023-01-06T15:43:06;10.80;72.50
69595;DHT22;56800;52.142;5.364;2023-01-06T15:45:34;10.80;71.80
69595;DHT22;56800;52.142;5.364;2023-01-06T15:48:16;10.80;71.90
69595;DHT22;56800;52.142;5.364;2023-01-06T15:50:52;10.70;71.90
69595;DHT22;56800;52.142;5.364;2023-01-06T15:53:39;10.70;72.10
69595;DHT22;56800;52.142;5.364;2023-01-06T15:56:44;10.60;72.10
69595;DHT22;56800;52.142;5.364;2023-01-06T15:59:14;10.60;72.10
69595;DHT22;56800;52.142;5.364;2023-01-06T16:01:51;10.60;72.20
69595;DHT22;56800;52.142;5.364;2023-01-06T16:05:05;10.60;72.30
69595;DHT22;56800;52.142;5.364;2023-01-06T16:08:28;10.50;72.40
69595;DHT22;56800;52.142;5.364;2023-01-06T16:11:28;10.50;72.50
69595;DHT22;56800;52.142;5.364;2023-01-06T16:14:31;10.40;72.60
69595;DHT22;56800;52.142;5.364;2023-01-06T16:17:43;10.40;72.70
69595;DHT22;56800;52.142;5.364;2023-01-06T16:20:25;10.40;73.00
69595;DHT22;56800;52.142;5.364;2023-01-06T16:22:54;10.30;73.20
69595;DHT22;56800;52.142;5.364;2023-01-06T16:25:29;10.30;73.30
69595;DHT22;56800;52.142;5.364;2023-01-06T16:28:01;10.20;73.50
69595;DHT22;56800;52.142;5.364;2023-01-06T16:30:37;10.30;73.60
69595;DHT22;56800;52.142;5.364;2023-01-06T16:33:37;10.20;73.80
69595;DHT22;56800;52.142;5.364;2023-01-06T16:36:15;10.20;74.00
69595;DHT22;56800;52.142;5.364;2023-01-06T16:38:45;10.20;74.10
69595;DHT22;56800;52.142;5.364;2023-01-06T16:41:29;10.20;74.20
69595;DHT22;56800;52.142;5.364;2023-01-06T16:44:02;10.10;74.30
69595;DHT22;56800;52.142;5.364;2023-01-06T16:46:30;10.10;74.50
69595;DHT22;56800;52.142;5.364;2023-01-06T16:49:07;10.10;74.60
69595;DHT22;56800;52.142;5.364;2023-01-06T16:51:59;10.10;74.90
69595;DHT22;56800;52.142;5.364;2023-01-06T16:54:28;10.10;74.80
69595;DHT22;56800;52.142;5.364;2023-01-06T16:57:26;10.00;74.90
69595;DHT22;56800;52.142;5.364;2023-01-06T16:59:53;10.00;75.20
69595;DHT22;56800;52.142;5.364;2023-01-06T17:02:20;10.00;75.30
69595;DHT22;56800;52.142;5.364;2023-01-06T17:04:49;9.90;75.40
69595;DHT22;56800;52.142;5.364;2023-01-06T17:07:38;9.90;75.60
69595;DHT22;56800;52.142;5.364;2023-01-06T17:10:21;9.90;75.70
69595;DHT22;56800;52.142;5.364;2023-01-06T17:13:30;9.90;75.90
69595;DHT22;56800;52.142;5.364;2023-01-06T17:16:37;9.90;76.10
69595;DHT22;56800;52.142;5.364;2023-01-06T17:19:33;9.90;76.20
69595;DHT22;56800;52.142;5.364;2023-01-06T17:22:20;9.90;76.30
69595;DHT22;56800;52.142;5.364;2023-01-06T17:24:51;9.90;76.40
69595;DHT22;56800;52.142;5.364;2023-01-06T17:27:27;9.90;76.50
69595;DHT22;56800;52.142;5.364;2023-01-06T17:30:00;9.90;76.60
69595;DHT22;56800;52.142;5.364;2023-01-06T17:32:36;9.90;76.60
69595;DHT22;56800;52.142;5.364;2023-01-06T17:35:35;10.00;76.80
69595;DHT22;56800;52.142;5.364;2023-01-06T17:38:23;10.00;76.90
69595;DHT22;56800;52.142;5.364;2023-01-06T17:41:29;10.00;76.90
69595;DHT22;56800;52.142;5.364;2023-01-06T17:43:57;10.00;77.00
69595;DHT22;56800;52.142;5.364;2023-01-06T17:46:34;10.00;77.00
69595;DHT22;56800;52.142;5.364;2023-01-06T17:49:34;10.00;77.10
69595;DHT22;56800;52.142;5.364;2023-01-06T17:52:18;10.00;77.10
69595;DHT22;56800;52.142;5.364;2023-01-06T17:58:34;10.10;77.20
69595;DHT22;56800;52.142;5.364;2023-01-06T18:01:31;10.10;78.00
69595;DHT22;56800;52.142;5.364;2023-01-06T18:04:10;10.10;77.30
69595;DHT22;56800;52.142;5.364;2023-01-06T18:06:41;10.10;77.40
69595;DHT22;56800;52.142;5.364;2023-01-06T18:09:16;10.10;78.20